sensor_id;sensor_type;location;lat;lon;timestamp;pressure;altitude;pressure_sealevel;temperature;humidity
77147;BME280;66121;52.584;9.694;2023-05-24T00:00:32;101792.00;;;7.54;85.53
77147;BME280;66121;52.584;9.694;2023-05-24T00:02:58;101788.91;;;7.56;85.59
77147;BME280;66121;52.584;9.694;2023-05-24T00:05:23;101793.81;;;7.50;85.55
77147;BME280;66121;52.584;9.694;2023-05-24T00:07:49;101796.41;;;7.47;85.93
77147;BME280;66121;52.584;9.694;2023-05-24T00:10:14;101800.78;;;7.48;85.27
77147;BME280;66121;52.584;9.694;2023-05-24T00:12:40;101797.88;;;7.44;85.75
77147;BME280;66121;52.584;9.694;2023-05-24T00:15:05;101799.50;;;7.45;85.77
77147;BME280;66121;52.584;9.694;2023-05-24T00:17:31;101796.34;;;7.35;86.54
77147;BME280;66121;52.584;9.694;2023-05-24T00:19:58;101796.41;;;7.47;86.73
77147;BME280;66121;52.584;9.694;2023-05-24T00:22:24;101792.84;;;7.46;86.39
77147;BME280;66121;52.584;9.694;2023-05-24T00:24:50;101804.31;;;7.48;86.25
77147;BME280;66121;52.584;9.694;2023-05-24T00:27:15;101797.22;;;7.47;86.92
77147;BME280;66121;52.584;9.694;2023-05-24T00:29:40;101799.16;;;7.47;86.60
77147;BME280;66121;52.584;9.694;2023-05-24T00:32:06;101789.44;;;7.49;87.31
77147;BME280;66121;52.584;9.694;2023-05-24T00:34:31;101782.34;;;7.48;86.90
77147;BME280;66121;52.584;9.694;2023-05-24T00:36:56;101790.97;;;7.59;86.93
77147;BME280;66121;52.584;9.694;2023-05-24T00:39:22;101786.09;;;7.64;86.46
77147;BME280;66121;52.584;9.694;2023-05-24T00:41:48;101782.31;;;7.69;86.31
77147;BME280;66121;52.584;9.694;2023-05-24T00:44:13;101783.59;;;7.71;86.97
77147;BME280;66121;52.584;9.694;2023-05-24T00:46:39;101784.00;;;7.61;86.83
77147;BME280;66121;52.584;9.694;2023-05-24T00:49:06;101788.19;;;7.67;86.71
77147;BME280;66121;52.584;9.694;2023-05-24T00:51:31;101788.28;;;7.71;86.56
77147;BME280;66121;52.584;9.694;2023-05-24T00:53:58;101785.53;;;7.71;86.91
77147;BME280;66121;52.584;9.694;2023-05-24T00:56:24;101790.44;;;7.65;87.22
77147;BME280;66121;52.584;9.694;2023-05-24T00:58:50;101784.16;;;7.65;87.09
77147;BME280;66121;52.584;9.694;2023-05-24T01:01:18;101777.44;;;7.54;87.24
77147;BME280;66121;52.584;9.694;2023-05-24T01:03:44;101788.91;;;7.56;87.85
77147;BME280;66121;52.584;9.694;2023-05-24T01:06:12;101778.94;;;7.51;87.71
77147;BME280;66121;52.584;9.694;2023-05-24T01:09:01;101779.72;;;7.52;87.47
77147;BME280;66121;52.584;9.694;2023-05-24T01:14:35;101772.50;;;7.47;87.56
77147;BME280;66121;52.584;9.694;2023-05-24T01:17:10;101771.25;;;7.45;88.24
77147;BME280;66121;52.584;9.694;2023-05-24T01:19:48;101773.78;;;7.50;88.13
77147;BME280;66121;52.584;9.694;2023-05-24T01:25:01;101770.94;;;7.58;88.29
77147;BME280;66121;52.584;9.694;2023-05-24T01:27:29;101771.16;;;7.53;88.43
77147;BME280;66121;52.584;9.694;2023-05-24T01:29:56;101761.91;;;7.58;87.99
77147;BME280;66121;52.584;9.694;2023-05-24T01:32:22;101766.50;;;7.66;88.17
77147;BME280;66121;52.584;9.694;2023-05-24T01:34:48;101761.38;;;7.64;88.29
77147;BME280;66121;52.584;9.694;2023-05-24T01:37:13;101762.97;;;7.65;88.41
77147;BME280;66121;52.584;9.694;2023-05-24T01:39:39;101765.50;;;7.70;87.98
77147;BME280;66121;52.584;9.694;2023-05-24T01:42:22;101755.78;;;7.73;88.15
77147;BME280;66121;52.584;9.694;2023-05-24T01:45:03;101755.88;;;7.64;88.09
77147;BME280;66121;52.584;9.694;2023-05-24T01:47:45;101762.69;;;7.58;88.64
77147;BME280;66121;52.584;9.694;2023-05-24T01:50:36;101764.94;;;7.65;89.04
77147;BME280;66121;52.584;9.694;2023-05-24T01:53:05;101762.03;;;7.61;88.89
77147;BME280;66121;52.584;9.694;2023-05-24T01:55:32;101761.38;;;7.64;89.19
77147;BME280;66121;52.584;9.694;2023-05-24T01:58:01;101760.91;;;7.62;89.13
77147;BME280;66121;52.584;9.694;2023-05-24T02:00:27;101762.50;;;7.63;88.34
77147;BME280;66121;52.584;9.694;2023-05-24T02:02:53;101762.66;;;7.67;88.84
77147;BME280;66121;52.584;9.694;2023-05-24T02:05:20;101753.72;;;7.70;88.68
77147;BME280;66121;52.584;9.694;2023-05-24T02:07:45;101750.63;;;7.71;89.47
77147;BME280;66121;52.584;9.694;2023-05-24T02:10:10;101745.09;;;7.59;89.51
77147;BME280;66121;52.584;9.694;2023-05-24T02:12:36;101750.25;;;7.61;89.17
77147;BME280;66121;52.584;9.694;2023-05-24T02:15:01;101745.34;;;7.66;89.61
77147;BME280;66121;52.584;9.694;2023-05-24T02:17:26;101737.25;;;7.70;89.31
77147;BME280;66121;52.584;9.694;2023-05-24T02:19:52;101737.09;;;7.66;89.09
77147;BME280;66121;52.584;9.694;2023-05-24T02:22:17;101735.50;;;7.65;89.76
77147;BME280;66121;52.584;9.694;2023-05-24T02:24:42;101734.22;;;7.63;89.71
77147;BME280;66121;52.584;9.694;2023-05-24T02:27:08;101737.47;;;7.65;89.99
77147;BME280;66121;52.584;9.694;2023-05-24T02:29:33;101727.25;;;7.65;89.69
77147;BME280;66121;52.584;9.694;2023-05-24T02:31:59;101722.09;;;7.64;89.60
77147;BME280;66121;52.584;9.694;2023-05-24T02:34:24;101729.31;;;7.68;89.77
77147;BME280;66121;52.584;9.694;2023-05-24T02:36:50;101729.56;;;7.75;89.39
77147;BME280;66121;52.584;9.694;2023-05-24T02:39:15;101725.91;;;7.71;89.95
77147;BME280;66121;52.584;9.694;2023-05-24T02:41:41;101731.25;;;7.68;89.79
77147;BME280;66121;52.584;9.694;2023-05-24T02:44:07;101734.38;;;7.66;90.02
77147;BME280;66121;52.584;9.694;2023-05-24T02:46:32;101734.44;;;7.58;90.23
77147;BME280;66121;52.584;9.694;2023-05-24T02:48:57;101738.94;;;7.62;90.19
77147;BME280;66121;52.584;9.694;2023-05-24T02:51:23;101733.44;;;7.62;90.27
77147;BME280;66121;52.584;9.694;2023-05-24T02:53:49;101745.00;;;7.68;90.25
77147;BME280;66121;52.584;9.694;2023-05-24T02:56:14;101741.94;;;7.69;90.43
77147;BME280;66121;52.584;9.694;2023-05-24T02:58:42;101734.50;;;7.70;90.60
77147;BME280;66121;52.584;9.694;2023-05-24T03:01:10;101744.25;;;7.79;90.77
77147;BME280;66121;52.584;9.694;2023-05-24T03:03:36;101736.69;;;7.76;90.14
77147;BME280;66121;52.584;9.694;2023-05-24T03:06:02;101739.00;;;7.87;90.46
77147;BME280;66121;52.584;9.694;2023-05-24T03:08:27;101737.53;;;7.89;89.93
77147;BME280;66121;52.584;9.694;2023-05-24T03:10:53;101733.66;;;7.90;90.42
77147;BME280;66121;52.584;9.694;2023-05-24T03:13:18;101742.81;;;7.94;90.12
77147;BME280;66121;52.584;9.694;2023-05-24T03:15:43;101734.91;;;7.93;89.87
77147;BME280;66121;52.584;9.694;2023-05-24T03:18:09;101733.75;;;7.94;90.46
77147;BME280;66121;52.584;9.694;2023-05-24T03:20:34;101728.16;;;7.90;89.95
77147;BME280;66121;52.584;9.694;2023-05-24T03:22:59;101724.38;;;7.95;90.04
77147;BME280;66121;52.584;9.694;2023-05-24T03:25:25;101716.84;;;8.04;89.42
77147;BME280;66121;52.584;9.694;2023-05-24T03:27:51;101713.84;;;7.97;89.43
77147;BME280;66121;52.584;9.694;2023-05-24T03:30:16;101730.19;;;7.93;90.06
77147;BME280;66121;52.584;9.694;2023-05-24T03:32:42;101724.59;;;7.90;89.96
77147;BME280;66121;52.584;9.694;2023-05-24T03:35:07;101722.09;;;7.97;89.83
77147;BME280;66121;52.584;9.694;2023-05-24T03:37:36;101722.97;;;7.89;90.23
77147;BME280;66121;52.584;9.694;2023-05-24T03:40:01;101716.94;;;7.95;90.20
77147;BME280;66121;52.584;9.694;2023-05-24T03:42:29;101726.19;;;7.91;90.00
77147;BME280;66121;52.584;9.694;2023-05-24T03:44:54;101727.94;;;7.95;90.11
77147;BME280;66121;52.584;9.694;2023-05-24T03:47:19;101740.16;;;7.98;89.43
77147;BME280;66121;52.584;9.694;2023-05-24T03:49:45;101733.09;;;7.97;90.13
77147;BME280;66121;52.584;9.694;2023-05-24T03:52:10;101741.94;;;8.02;89.94
77147;BME280;66121;52.584;9.694;2023-05-24T03:54:36;101727.25;;;8.10;90.15
77147;BME280;66121;52.584;9.694;2023-05-24T03:57:01;101738.25;;;8.10;90.27
77147;BME280;66121;52.584;9.694;2023-05-24T03:59:27;101741.06;;;8.22;89.85
77147;BME280;66121;52.584;9.694;2023-05-24T04:01:52;101739.56;;;8.25;89.93
77147;BME280;66121;52.584;9.694;2023-05-24T04:04:17;101748.59;;;8.25;90.48
77147;BME280;66121;52.584;9.694;2023-05-24T04:06:43;101739.88;;;8.23;90.19
77147;BME280;66121;52.584;9.694;2023-05-24T04:09:08;101744.75;;;8.38;89.20
77147;BME280;66121;52.584;9.694;2023-05-24T04:11:34;101749.44;;;8.50;89.39
77147;BME280;66121;52.584;9.694;2023-05-24T04:14:00;101749.25;;;8.67;88.22
77147;BME280;66121;52.584;9.694;2023-05-24T04:16:25;101742.34;;;8.73;87.56
77147;BME280;66121;52.584;9.694;2023-05-24T04:18:54;101749.69;;;8.81;87.58
77147;BME280;66121;52.584;9.694;2023-05-24T04:21:19;101754.84;;;8.83;87.61
77147;BME280;66121;52.584;9.694;2023-05-24T04:23:45;101756.69;;;8.79;87.68
77147;BME280;66121;52.584;9.694;2023-05-24T04:26:11;101749.34;;;8.83;87.22
77147;BME280;66121;52.584;9.694;2023-05-24T04:28:36;101746.03;;;8.89;86.26
77147;BME280;66121;52.584;9.694;2023-05-24T04:31:04;101749.06;;;9.00;86.26
77147;BME280;66121;52.584;9.694;2023-05-24T04:33:30;101749.06;;;9.24;85.27
77147;BME280;66121;52.584;9.694;2023-05-24T04:35:56;101751.91;;;9.55;84.13
77147;BME280;66121;52.584;9.694;2023-05-24T04:38:25;101746.84;;;9.57;83.78
77147;BME280;66121;52.584;9.694;2023-05-24T04:40:53;101755.53;;;9.71;82.79
77147;BME280;66121;52.584;9.694;2023-05-24T04:43:18;101758.13;;;9.80;82.41
77147;BME280;66121;52.584;9.694;2023-05-24T04:45:44;101758.53;;;9.94;81.50
77147;BME280;66121;52.584;9.694;2023-05-24T04:48:09;101743.94;;;9.94;81.66
77147;BME280;66121;52.584;9.694;2023-05-24T04:50:35;101746.78;;;9.97;80.68
77147;BME280;66121;52.584;9.694;2023-05-24T04:53:01;101748.13;;;10.03;81.03
77147;BME280;66121;52.584;9.694;2023-05-24T04:55:27;101745.06;;;10.20;80.12
77147;BME280;66121;52.584;9.694;2023-05-24T04:57:52;101750.34;;;10.41;79.70
77147;BME280;66121;52.584;9.694;2023-05-24T05:00:18;101751.50;;;10.24;80.04
77147;BME280;66121;52.584;9.694;2023-05-24T05:02:43;101755.69;;;10.34;79.80
77147;BME280;66121;52.584;9.694;2023-05-24T05:05:08;101756.00;;;9.73;80.79
77147;BME280;66121;52.584;9.694;2023-05-24T05:07:35;101758.25;;;9.56;82.51
77147;BME280;66121;52.584;9.694;2023-05-24T05:10:00;101756.47;;;9.91;81.51
77147;BME280;66121;52.584;9.694;2023-05-24T05:12:26;101754.94;;;9.78;81.35
77147;BME280;66121;52.584;9.694;2023-05-24T05:14:51;101759.50;;;9.58;82.67
77147;BME280;66121;52.584;9.694;2023-05-24T05:17:16;101757.34;;;9.52;82.56
77147;BME280;66121;52.584;9.694;2023-05-24T05:19:42;101757.94;;;9.45;82.25
77147;BME280;66121;52.584;9.694;2023-05-24T05:22:07;101754.72;;;9.43;83.12
77147;BME280;66121;52.584;9.694;2023-05-24T05:24:32;101763.38;;;9.57;82.88
77147;BME280;66121;52.584;9.694;2023-05-24T05:26:57;101760.19;;;9.55;83.04
77147;BME280;66121;52.584;9.694;2023-05-24T05:29:23;101758.00;;;10.32;80.47
77147;BME280;66121;52.584;9.694;2023-05-24T05:31:48;101751.56;;;10.75;78.97
77147;BME280;66121;52.584;9.694;2023-05-24T05:34:13;101757.06;;;10.90;78.11
77147;BME280;66121;52.584;9.694;2023-05-24T05:36:39;101761.06;;;11.28;76.88
77147;BME280;66121;52.584;9.694;2023-05-24T05:39:08;101761.38;;;11.07;76.22
77147;BME280;66121;52.584;9.694;2023-05-24T05:41:36;101760.06;;;11.36;76.95
77147;BME280;66121;52.584;9.694;2023-05-24T05:44:01;101763.41;;;11.45;76.45
77147;BME280;66121;52.584;9.694;2023-05-24T05:46:27;101768.13;;;11.44;76.62
77147;BME280;66121;52.584;9.694;2023-05-24T05:48:52;101766.16;;;11.26;77.07
77147;BME280;66121;52.584;9.694;2023-05-24T05:51:17;101775.09;;;11.19;75.76
77147;BME280;66121;52.584;9.694;2023-05-24T05:53:43;101776.63;;;11.17;77.37
77147;BME280;66121;52.584;9.694;2023-05-24T05:56:08;101774.19;;;11.15;78.78
77147;BME280;66121;52.584;9.694;2023-05-24T05:58:33;101776.94;;;11.50;76.83
77147;BME280;66121;52.584;9.694;2023-05-24T06:00:58;101782.56;;;11.73;76.33
77147;BME280;66121;52.584;9.694;2023-05-24T06:03:24;101779.34;;;12.09;76.44
77147;BME280;66121;52.584;9.694;2023-05-24T06:05:49;101767.88;;;11.88;75.82
77147;BME280;66121;52.584;9.694;2023-05-24T06:08:14;101776.75;;;11.78;75.50
77147;BME280;66121;52.584;9.694;2023-05-24T06:10:40;101767.72;;;11.81;75.89
77147;BME280;66121;52.584;9.694;2023-05-24T06:13:05;101775.22;;;11.80;75.77
77147;BME280;66121;52.584;9.694;2023-05-24T06:15:30;101775.13;;;11.77;76.68
77147;BME280;66121;52.584;9.694;2023-05-24T06:17:58;101776.03;;;11.81;76.05
77147;BME280;66121;52.584;9.694;2023-05-24T06:20:24;101762.88;;;11.39;75.26
77147;BME280;66121;52.584;9.694;2023-05-24T06:22:50;101781.06;;;11.59;76.47
77147;BME280;66121;52.584;9.694;2023-05-24T06:25:16;101777.59;;;11.62;76.14
77147;BME280;66121;52.584;9.694;2023-05-24T06:27:43;101788.66;;;11.62;75.66
77147;BME280;66121;52.584;9.694;2023-05-24T06:30:09;101786.31;;;11.64;76.50
77147;BME280;66121;52.584;9.694;2023-05-24T06:32:34;101793.09;;;11.48;77.24
77147;BME280;66121;52.584;9.694;2023-05-24T06:35:00;101793.75;;;11.60;78.62
77147;BME280;66121;52.584;9.694;2023-05-24T06:37:25;101797.06;;;11.31;77.29
77147;BME280;66121;52.584;9.694;2023-05-24T06:39:50;101793.09;;;11.13;79.21
77147;BME280;66121;52.584;9.694;2023-05-24T06:42:16;101805.50;;;11.04;80.43
77147;BME280;66121;52.584;9.694;2023-05-24T06:44:41;101807.19;;;10.92;80.15
77147;BME280;66121;52.584;9.694;2023-05-24T06:47:06;101802.22;;;10.98;79.25
77147;BME280;66121;52.584;9.694;2023-05-24T06:49:33;101799.34;;;11.10;81.60
77147;BME280;66121;52.584;9.694;2023-05-24T06:51:58;101805.41;;;11.16;80.55
77147;BME280;66121;52.584;9.694;2023-05-24T06:54:23;101811.50;;;11.25;80.13
77147;BME280;66121;52.584;9.694;2023-05-24T06:56:49;101808.97;;;11.00;80.20
77147;BME280;66121;52.584;9.694;2023-05-24T06:59:15;101806.59;;;10.83;80.30
77147;BME280;66121;52.584;9.694;2023-05-24T07:01:40;101806.44;;;10.76;80.82
77147;BME280;66121;52.584;9.694;2023-05-24T07:04:07;101820.75;;;10.82;81.79
77147;BME280;66121;52.584;9.694;2023-05-24T07:06:33;101821.66;;;10.70;81.54
77147;BME280;66121;52.584;9.694;2023-05-24T07:08:59;101818.28;;;10.77;82.25
77147;BME280;66121;52.584;9.694;2023-05-24T07:11:26;101813.38;;;10.86;82.58
77147;BME280;66121;52.584;9.694;2023-05-24T07:13:52;101807.75;;;10.82;83.23
77147;BME280;66121;52.584;9.694;2023-05-24T07:16:17;101821.41;;;11.26;83.84
77147;BME280;66121;52.584;9.694;2023-05-24T07:18:42;101814.28;;;11.25;84.01
77147;BME280;66121;52.584;9.694;2023-05-24T07:21:08;101829.13;;;11.36;84.50
77147;BME280;66121;52.584;9.694;2023-05-24T07:23:33;101828.03;;;11.06;83.89
77147;BME280;66121;52.584;9.694;2023-05-24T07:25:59;101825.22;;;10.86;84.81
77147;BME280;66121;52.584;9.694;2023-05-24T07:28:24;101829.84;;;10.67;86.94
77147;BME280;66121;52.584;9.694;2023-05-24T07:30:50;101831.88;;;10.70;87.24
77147;BME280;66121;52.584;9.694;2023-05-24T07:33:15;101828.25;;;10.66;88.04
77147;BME280;66121;52.584;9.694;2023-05-24T07:35:41;101833.59;;;10.59;86.48
77147;BME280;66121;52.584;9.694;2023-05-24T07:38:06;101832.50;;;10.48;87.79
77147;BME280;66121;52.584;9.694;2023-05-24T07:40:31;101841.41;;;10.57;86.95
77147;BME280;66121;52.584;9.694;2023-05-24T07:42:57;101841.06;;;10.58;87.46
77147;BME280;66121;52.584;9.694;2023-05-24T07:45:22;101839.00;;;10.71;87.54
77147;BME280;66121;52.584;9.694;2023-05-24T07:47:47;101839.63;;;10.80;87.75
77147;BME280;66121;52.584;9.694;2023-05-24T07:50:12;101840.88;;;10.82;87.22
77147;BME280;66121;52.584;9.694;2023-05-24T07:52:38;101852.63;;;10.79;87.96
77147;BME280;66121;52.584;9.694;2023-05-24T07:55:04;101842.59;;;10.71;86.84
77147;BME280;66121;52.584;9.694;2023-05-24T07:57:30;101840.06;;;10.82;87.46
77147;BME280;66121;52.584;9.694;2023-05-24T07:59:55;101846.22;;;10.75;87.26
77147;BME280;66121;52.584;9.694;2023-05-24T08:02:20;101846.31;;;10.63;87.50
77147;BME280;66121;52.584;9.694;2023-05-24T08:04:46;101851.56;;;10.68;88.32
77147;BME280;66121;52.584;9.694;2023-05-24T08:07:12;101847.38;;;10.59;88.36
77147;BME280;66121;52.584;9.694;2023-05-24T08:09:38;101846.31;;;10.79;87.90
77147;BME280;66121;52.584;9.694;2023-05-24T08:12:04;101847.41;;;10.74;87.05
77147;BME280;66121;52.584;9.694;2023-05-24T08:14:30;101853.16;;;10.54;87.32
77147;BME280;66121;52.584;9.694;2023-05-24T08:16:56;101853.97;;;10.70;87.44
77147;BME280;66121;52.584;9.694;2023-05-24T08:19:21;101860.03;;;10.75;87.11
77147;BME280;66121;52.584;9.694;2023-05-24T08:21:47;101847.47;;;10.78;88.03
77147;BME280;66121;52.584;9.694;2023-05-24T08:24:12;101858.97;;;10.95;87.36
77147;BME280;66121;52.584;9.694;2023-05-24T08:26:38;101853.97;;;11.17;88.09
77147;BME280;66121;52.584;9.694;2023-05-24T08:29:03;101857.69;;;11.24;85.92
77147;BME280;66121;52.584;9.694;2023-05-24T08:31:29;101852.09;;;11.05;85.99
77147;BME280;66121;52.584;9.694;2023-05-24T08:33:54;101858.97;;;10.95;86.34
77147;BME280;66121;52.584;9.694;2023-05-24T08:36:21;101865.81;;;10.86;85.93
77147;BME280;66121;52.584;9.694;2023-05-24T08:38:47;101870.81;;;10.96;86.62
77147;BME280;66121;52.584;9.694;2023-05-24T08:41:12;101867.69;;;10.97;86.00
77147;BME280;66121;52.584;9.694;2023-05-24T08:43:37;101867.06;;;11.04;85.94
77147;BME280;66121;52.584;9.694;2023-05-24T08:46:04;101870.63;;;10.89;85.60
77147;BME280;66121;52.584;9.694;2023-05-24T08:48:30;101879.00;;;11.08;85.67
77147;BME280;66121;52.584;9.694;2023-05-24T08:50:56;101873.38;;;11.20;86.00
77147;BME280;66121;52.584;9.694;2023-05-24T08:53:22;101876.22;;;11.24;85.52
77147;BME280;66121;52.584;9.694;2023-05-24T08:55:49;101873.69;;;11.34;85.11
77147;BME280;66121;52.584;9.694;2023-05-24T08:58:18;101881.47;;;11.29;86.12
77147;BME280;66121;52.584;9.694;2023-05-24T09:00:43;101878.19;;;11.23;86.40
77147;BME280;66121;52.584;9.694;2023-05-24T09:03:09;101876.50;;;11.19;87.11
77147;BME280;66121;52.584;9.694;2023-05-24T09:05:36;101882.25;;;11.29;87.28
77147;BME280;66121;52.584;9.694;2023-05-24T09:08:02;101881.22;;;11.34;87.82
77147;BME280;66121;52.584;9.694;2023-05-24T09:10:28;101892.38;;;11.22;88.57
77147;BME280;66121;52.584;9.694;2023-05-24T09:12:55;101880.69;;;11.13;88.02
77147;BME280;66121;52.584;9.694;2023-05-24T09:15:22;101876.28;;;11.27;89.44
77147;BME280;66121;52.584;9.694;2023-05-24T09:17:47;101876.84;;;11.17;89.57
77147;BME280;66121;52.584;9.694;2023-05-24T09:20:13;101882.75;;;11.16;89.40
77147;BME280;66121;52.584;9.694;2023-05-24T09:22:40;101878.63;;;11.25;90.38
77147;BME280;66121;52.584;9.694;2023-05-24T09:25:06;101877.03;;;11.09;90.17
77147;BME280;66121;52.584;9.694;2023-05-24T09:27:32;101881.31;;;11.06;91.82
77147;BME280;66121;52.584;9.694;2023-05-24T09:30:02;101873.22;;;11.13;91.77
77147;BME280;66121;52.584;9.694;2023-05-24T09:32:30;101871.84;;;11.23;91.30
77147;BME280;66121;52.584;9.694;2023-05-24T09:34:57;101877.81;;;11.25;91.38
77147;BME280;66121;52.584;9.694;2023-05-24T09:37:24;101875.34;;;11.54;91.26
77147;BME280;66121;52.584;9.694;2023-05-24T09:39:52;101889.06;;;11.67;90.42
77147;BME280;66121;52.584;9.694;2023-05-24T09:42:21;101883.81;;;11.61;90.15
77147;BME280;66121;52.584;9.694;2023-05-24T09:45:05;101871.31;;;11.68;91.00
77147;BME280;66121;52.584;9.694;2023-05-24T09:47:41;101883.59;;;11.86;91.17
77147;BME280;66121;52.584;9.694;2023-05-24T09:50:12;101882.94;;;11.92;89.00
77147;BME280;66121;52.584;9.694;2023-05-24T09:52:39;101891.50;;;11.87;88.63
77147;BME280;66121;52.584;9.694;2023-05-24T09:55:16;101891.00;;;11.82;88.22
77147;BME280;66121;52.584;9.694;2023-05-24T09:57:43;101883.81;;;11.96;89.88
77147;BME280;66121;52.584;9.694;2023-05-24T10:00:09;101883.06;;;11.99;89.66
77147;BME280;66121;52.584;9.694;2023-05-24T10:02:44;101888.50;;;12.11;88.46
77147;BME280;66121;52.584;9.694;2023-05-24T10:05:10;101897.28;;;11.98;87.54
77147;BME280;66121;52.584;9.694;2023-05-24T10:07:37;101888.84;;;12.10;87.55
77147;BME280;66121;52.584;9.694;2023-05-24T10:10:04;101889.69;;;11.95;85.97
77147;BME280;66121;52.584;9.694;2023-05-24T10:12:29;101885.22;;;12.06;86.61
77147;BME280;66121;52.584;9.694;2023-05-24T10:14:55;101890.44;;;12.30;87.54
77147;BME280;66121;52.584;9.694;2023-05-24T10:17:22;101892.25;;;12.22;86.37
77147;BME280;66121;52.584;9.694;2023-05-24T10:19:51;101891.88;;;12.05;85.68
77147;BME280;66121;52.584;9.694;2023-05-24T10:22:20;101898.16;;;12.02;86.23
77147;BME280;66121;52.584;9.694;2023-05-24T10:24:49;101898.38;;;12.12;85.77
77147;BME280;66121;52.584;9.694;2023-05-24T10:27:21;101896.69;;;12.27;87.47
77147;BME280;66121;52.584;9.694;2023-05-24T10:32:25;101892.63;;;12.21;86.18
77147;BME280;66121;52.584;9.694;2023-05-24T10:34:57;101892.53;;;12.37;85.74
77147;BME280;66121;52.584;9.694;2023-05-24T10:37:23;101890.78;;;12.48;85.16
77147;BME280;66121;52.584;9.694;2023-05-24T10:39:49;101891.84;;;12.62;85.71
77147;BME280;66121;52.584;9.694;2023-05-24T10:42:14;101896.03;;;12.75;84.97
77147;BME280;66121;52.584;9.694;2023-05-24T10:44:41;101903.81;;;12.66;84.09
77147;BME280;66121;52.584;9.694;2023-05-24T10:47:07;101897.31;;;12.81;83.63
77147;BME280;66121;52.584;9.694;2023-05-24T10:49:34;101895.00;;;12.61;83.08
77147;BME280;66121;52.584;9.694;2023-05-24T10:52:09;101902.75;;;12.74;85.54
77147;BME280;66121;52.584;9.694;2023-05-24T10:54:34;101896.22;;;12.63;83.89
77147;BME280;66121;52.584;9.694;2023-05-24T10:57:01;101899.44;;;12.88;82.20
77147;BME280;66121;52.584;9.694;2023-05-24T10:59:31;101897.28;;;13.01;83.65
77147;BME280;66121;52.584;9.694;2023-05-24T11:01:59;101898.13;;;12.82;81.44
77147;BME280;66121;52.584;9.694;2023-05-24T11:04:29;101900.09;;;12.81;81.71
77147;BME280;66121;52.584;9.694;2023-05-24T11:06:59;101895.34;;;12.82;80.31
77147;BME280;66121;52.584;9.694;2023-05-24T11:09:26;101895.75;;;12.80;84.60
77147;BME280;66121;52.584;9.694;2023-05-24T11:11:58;101896.63;;;12.43;83.22
77147;BME280;66121;52.584;9.694;2023-05-24T11:14:26;101900.31;;;12.50;85.62
77147;BME280;66121;52.584;9.694;2023-05-24T11:16:53;101895.69;;;12.35;84.90
77147;BME280;66121;52.584;9.694;2023-05-24T11:19:27;101888.63;;;12.18;86.74
77147;BME280;66121;52.584;9.694;2023-05-24T11:21:55;101897.75;;;12.19;87.20
77147;BME280;66121;52.584;9.694;2023-05-24T11:24:22;101894.34;;;12.29;87.76
77147;BME280;66121;52.584;9.694;2023-05-24T11:26:49;101897.50;;;12.27;86.87
77147;BME280;66121;52.584;9.694;2023-05-24T11:29:15;101885.06;;;12.60;87.31
77147;BME280;66121;52.584;9.694;2023-05-24T11:31:54;101890.00;;;12.92;84.51
77147;BME280;66121;52.584;9.694;2023-05-24T11:34:22;101900.63;;;13.10;82.56
77147;BME280;66121;52.584;9.694;2023-05-24T11:36:49;101900.72;;;13.17;83.05
77147;BME280;66121;52.584;9.694;2023-05-24T11:39:16;101894.53;;;13.23;83.93
77147;BME280;66121;52.584;9.694;2023-05-24T11:41:42;101905.22;;;13.25;82.83
77147;BME280;66121;52.584;9.694;2023-05-24T11:44:09;101900.50;;;13.25;83.74
77147;BME280;66121;52.584;9.694;2023-05-24T11:46:37;101904.81;;;13.23;80.94
77147;BME280;66121;52.584;9.694;2023-05-24T11:49:03;101894.03;;;13.18;82.76
77147;BME280;66121;52.584;9.694;2023-05-24T11:51:30;101905.75;;;13.08;85.02
77147;BME280;66121;52.584;9.694;2023-05-24T11:53:56;101901.69;;;13.05;84.34
77147;BME280;66121;52.584;9.694;2023-05-24T11:56:27;101896.78;;;12.95;82.26
77147;BME280;66121;52.584;9.694;2023-05-24T11:59:05;101897.84;;;13.10;83.49
77147;BME280;66121;52.584;9.694;2023-05-24T12:01:32;101902.34;;;13.18;82.24
77147;BME280;66121;52.584;9.694;2023-05-24T12:03:58;101900.09;;;13.27;80.98
77147;BME280;66121;52.584;9.694;2023-05-24T12:06:33;101890.44;;;13.17;80.66
77147;BME280;66121;52.584;9.694;2023-05-24T12:08:58;101899.06;;;13.35;81.24
77147;BME280;66121;52.584;9.694;2023-05-24T12:11:24;101899.16;;;13.68;81.39
77147;BME280;66121;52.584;9.694;2023-05-24T12:13:49;101901.06;;;13.90;79.40
77147;BME280;66121;52.584;9.694;2023-05-24T12:16:15;101888.84;;;14.28;76.23
77147;BME280;66121;52.584;9.694;2023-05-24T12:18:40;101892.00;;;14.63;76.13
77147;BME280;66121;52.584;9.694;2023-05-24T12:21:08;101889.84;;;14.83;75.36
77147;BME280;66121;52.584;9.694;2023-05-24T12:23:35;101896.63;;;14.89;73.75
77147;BME280;66121;52.584;9.694;2023-05-24T12:26:02;101897.34;;;15.23;72.62
77147;BME280;66121;52.584;9.694;2023-05-24T12:28:35;101890.19;;;15.22;74.29
77147;BME280;66121;52.584;9.694;2023-05-24T12:31:02;101891.34;;;15.17;70.81
77147;BME280;66121;52.584;9.694;2023-05-24T12:33:27;101894.81;;;15.07;70.32
77147;BME280;66121;52.584;9.694;2023-05-24T12:35:53;101893.84;;;15.33;72.00
77147;BME280;66121;52.584;9.694;2023-05-24T12:38:18;101895.81;;;15.32;70.23
77147;BME280;66121;52.584;9.694;2023-05-24T12:40:49;101894.88;;;15.65;72.24
77147;BME280;66121;52.584;9.694;2023-05-24T12:43:15;101895.91;;;15.43;68.79
77147;BME280;66121;52.584;9.694;2023-05-24T12:45:41;101886.72;;;16.04;71.60
77147;BME280;66121;52.584;9.694;2023-05-24T12:48:06;101884.81;;;16.26;67.72
77147;BME280;66121;52.584;9.694;2023-05-24T12:50:32;101892.44;;;16.43;68.33
77147;BME280;66121;52.584;9.694;2023-05-24T12:52:58;101880.53;;;16.53;67.11
77147;BME280;66121;52.584;9.694;2023-05-24T12:55:25;101891.63;;;16.32;68.13
77147;BME280;66121;52.584;9.694;2023-05-24T12:57:52;101873.97;;;15.96;69.92
77147;BME280;66121;52.584;9.694;2023-05-24T13:00:19;101887.13;;;15.41;68.69